createdAt,value
2024-01-10T00:02:40.194Z,5.78
2024-01-10T00:05:47.897Z,6.72
2024-01-10T00:08:52.697Z,5.20
2024-01-10T00:11:57.907Z,6.95
2024-01-10T00:15:01.892Z,6.57
2024-01-10T00:18:06.886Z,8.68
2024-01-10T00:21:12.760Z,5.40
2024-01-10T00:24:16.873Z,6.68
2024-01-10T00:27:40.554Z,7.13
2024-01-10T00:30:46.723Z,2.90
2024-01-10T00:33:53.324Z,4.53
2024-01-10T00:37:01.099Z,3.55
2024-01-10T00:40:06.259Z,3.35
2024-01-10T00:43:10.314Z,4.18
2024-01-10T00:46:14.233Z,3.92
2024-01-10T00:49:22.257Z,3.45
2024-01-10T00:52:29.482Z,4.00
2024-01-10T00:55:39.063Z,3.00
2024-01-10T00:58:43.332Z,4.63
2024-01-10T01:01:51.907Z,5.68
2024-01-10T01:04:56.030Z,3.53
2024-01-10T01:08:01.542Z,4.53
2024-01-10T01:11:11.397Z,3.20
2024-01-10T01:14:18.367Z,4.55
2024-01-10T01:17:22.347Z,4.57
2024-01-10T01:20:38.703Z,2.80
2024-01-10T01:23:44.137Z,3.08
2024-01-10T01:26:48.049Z,3.55
2024-01-10T01:29:52.062Z,1.67
2024-01-10T01:32:56.201Z,2.05
2024-01-10T01:36:00.566Z,2.17
2024-01-10T01:39:06.017Z,1.27
2024-01-10T01:42:10.365Z,1.67
2024-01-10T01:45:14.911Z,0.95
2024-01-10T01:48:19.208Z,1.15
2024-01-10T01:51:25.600Z,2.22
2024-01-10T01:54:31.721Z,0.88
2024-01-10T01:57:36.105Z,1.20
2024-01-10T02:00:41.683Z,0.88
2024-01-10T02:03:46.175Z,0.70
2024-01-10T02:06:50.261Z,7.70
2024-01-10T02:09:55.745Z,8.02
2024-01-10T02:13:01.058Z,8.27
2024-01-10T02:16:06.543Z,7.50
2024-01-10T02:19:30.437Z,10.57
2024-01-10T02:22:34.599Z,9.77
2024-01-10T02:25:40.990Z,11.75
2024-01-10T02:28:47.249Z,6.80
2024-01-10T02:31:54.296Z,11.68
2024-01-10T02:35:01.248Z,6.47
2024-01-10T02:38:06.610Z,11.90
2024-01-10T02:41:12.195Z,13.98
2024-01-10T02:44:19.745Z,14.75
2024-01-10T02:47:26.515Z,13.73
2024-01-10T02:50:30.950Z,12.60
2024-01-10T02:53:34.880Z,15.00
2024-01-10T02:56:43.973Z,10.07
2024-01-10T02:59:50.501Z,13.13
2024-01-10T03:02:54.383Z,13.95
2024-01-10T03:05:58.338Z,8.85
2024-01-10T03:09:02.235Z,8.13
2024-01-10T03:12:10.849Z,10.90
2024-01-10T03:15:16.159Z,6.63
2024-01-10T03:18:20.161Z,12.57
2024-01-10T03:21:26.164Z,10.98
2024-01-10T03:24:30.214Z,11.50
2024-01-10T03:27:41.573Z,8.40
2024-01-10T03:30:52.569Z,11.27
2024-01-10T03:33:56.810Z,9.13
2024-01-10T03:37:03.634Z,7.22
2024-01-10T03:40:08.760Z,11.50
2024-01-10T03:43:20.371Z,11.70
2024-01-10T03:46:25.438Z,10.63
2024-01-10T03:49:29.478Z,6.72
2024-01-10T03:52:33.583Z,8.85
2024-01-10T03:55:40.678Z,8.32
2024-01-10T03:58:50.036Z,10.05
2024-01-10T04:01:55.710Z,9.98
2024-01-10T04:05:10.218Z,8.70
2024-01-10T04:08:19.285Z,8.70
2024-01-10T04:11:25.356Z,8.50
2024-01-10T04:14:30.883Z,9.27
2024-01-10T04:17:35.131Z,6.75
2024-01-10T04:20:39.325Z,9.95
2024-01-10T04:23:46.149Z,11.52
2024-01-10T04:26:59.401Z,7.93
2024-01-10T04:30:14.205Z,6.43
2024-01-10T04:33:18.260Z,9.18
2024-01-10T04:36:22.209Z,6.18
2024-01-10T04:39:26.153Z,11.05
2024-01-10T04:42:30.064Z,14.05
2024-01-10T04:45:35.557Z,8.27
2024-01-10T04:48:39.631Z,7.38
2024-01-10T04:51:43.997Z,8.25
2024-01-10T04:54:47.914Z,9.02
2024-01-10T04:57:51.817Z,9.05
2024-01-10T05:00:57.500Z,10.90
2024-01-10T05:04:01.497Z,11.30
2024-01-10T05:07:05.542Z,9.40
2024-01-10T05:10:10.124Z,6.15
2024-01-10T05:13:14.596Z,10.15
2024-01-10T05:16:19.980Z,11.40
2024-01-10T05:19:23.949Z,10.40
2024-01-10T05:22:27.982Z,6.45
2024-01-10T05:25:31.990Z,11.43
2024-01-10T05:28:35.954Z,8.00
2024-01-10T05:31:41.441Z,8.23
2024-01-10T05:34:45.463Z,7.78
2024-01-10T05:37:49.430Z,5.25
2024-01-10T05:40:53.817Z,10.80
2024-01-10T05:43:57.837Z,6.40
2024-01-10T05:47:04.268Z,5.07
2024-01-10T05:50:09.498Z,5.15
2024-01-10T05:53:15.228Z,5.80
2024-01-10T05:56:19.249Z,6.45
2024-01-10T06:02:28.897Z,9.48
2024-01-10T06:05:33.679Z,8.77
2024-01-10T06:08:37.975Z,6.38
2024-01-10T06:11:44.731Z,9.45
2024-01-10T06:14:48.676Z,9.83
2024-01-10T06:17:54.222Z,7.70
2024-01-10T06:20:58.204Z,9.13
2024-01-10T06:24:02.125Z,7.15
2024-01-10T06:27:07.180Z,6.30
2024-01-10T06:30:12.236Z,8.57
2024-01-10T06:33:17.885Z,9.70
2024-01-10T06:36:21.905Z,7.88
2024-01-10T06:39:26.137Z,4.82
2024-01-10T06:42:30.043Z,4.95
2024-01-10T06:45:33.996Z,10.23
2024-01-10T06:48:42.511Z,7.55
2024-01-10T06:51:47.030Z,4.30
2024-01-10T06:54:51.020Z,5.80
2024-01-10T06:57:55.511Z,5.78
2024-01-10T07:01:01.579Z,7.53
2024-01-10T07:04:07.114Z,2.60
2024-01-10T07:07:12.818Z,6.68
2024-01-10T07:10:16.853Z,6.05
2024-01-10T07:13:21.370Z,6.07
2024-01-10T07:16:26.831Z,5.38
2024-01-10T07:19:32.521Z,2.65
2024-01-10T07:22:36.602Z,5.20
2024-01-10T07:25:40.608Z,7.45
2024-01-10T07:28:44.574Z,6.88
2024-01-10T07:31:50.310Z,2.80
2024-01-10T07:34:56.958Z,6.45
2024-01-10T07:38:00.893Z,5.97
2024-01-10T07:41:04.927Z,8.10
2024-01-10T07:44:10.912Z,8.57
2024-01-10T07:47:15.024Z,7.25
2024-01-10T07:50:21.094Z,6.88
2024-01-10T07:53:28.139Z,6.65
2024-01-10T07:56:32.785Z,4.57
2024-01-10T07:59:36.920Z,5.47
2024-01-10T08:02:42.263Z,4.03
2024-01-10T08:05:47.909Z,7.13
2024-01-10T08:08:51.979Z,6.38
2024-01-10T08:11:55.878Z,3.53
2024-01-10T08:15:00.480Z,4.60
2024-01-10T08:18:05.462Z,6.15
2024-01-10T08:21:13.690Z,2.80
2024-01-10T08:24:17.782Z,2.70
2024-01-10T08:27:22.128Z,4.57
2024-01-10T08:30:26.549Z,4.60
2024-01-10T08:33:31.837Z,6.00
2024-01-10T08:36:37.551Z,6.22
2024-01-10T08:39:44.161Z,8.20
2024-01-10T08:42:48.087Z,3.78
2024-01-10T08:45:52.002Z,2.88
2024-01-10T08:48:55.975Z,10.02
2024-01-10T08:52:01.412Z,2.60
2024-01-10T08:55:10.410Z,4.90
2024-01-10T08:58:16.619Z,3.58
2024-01-10T09:01:20.465Z,2.95
2024-01-10T09:04:24.375Z,5.10
2024-01-10T09:07:29.689Z,3.33
2024-01-10T09:10:33.667Z,3.30
2024-01-10T09:13:39.525Z,4.90
2024-01-10T09:16:43.709Z,5.40
2024-01-10T09:19:47.994Z,4.38
2024-01-10T09:22:53.549Z,6.90
2024-01-10T09:25:57.750Z,4.05
2024-01-10T09:29:01.781Z,2.85
2024-01-10T09:32:06.536Z,2.40
2024-01-10T09:35:11.273Z,5.38
2024-01-10T09:38:18.578Z,3.20
2024-01-10T09:41:22.861Z,3.13
2024-01-10T09:44:27.372Z,5.32
2024-01-10T09:47:32.541Z,5.00
2024-01-10T09:50:36.604Z,7.20
2024-01-10T09:53:46.343Z,10.98
2024-01-10T09:56:50.407Z,5.65
2024-01-10T09:59:55.773Z,6.70
2024-01-10T10:03:01.830Z,5.10
2024-01-10T10:06:06.440Z,6.70
2024-01-10T10:09:14.533Z,4.82
2024-01-10T10:12:18.587Z,6.38
2024-01-10T10:15:27.383Z,8.07
2024-01-10T10:18:32.897Z,6.32
2024-01-10T10:21:37.183Z,5.50
2024-01-10T10:24:45.696Z,9.25
2024-01-10T10:27:51.338Z,2.20
2024-01-10T10:30:55.662Z,3.15
2024-01-10T10:34:03.678Z,3.03
2024-01-10T10:37:07.734Z,3.95
2024-01-10T10:40:15.083Z,6.65
2024-01-10T10:46:29.830Z,6.22
2024-01-10T10:49:36.046Z,4.45
2024-01-10T10:52:42.511Z,6.82
2024-01-10T10:55:50.533Z,4.80
2024-01-10T10:58:56.292Z,4.78
2024-01-10T11:02:00.402Z,4.45
2024-01-10T11:05:07.859Z,5.20
2024-01-10T11:08:15.570Z,5.35
2024-01-10T11:14:42.732Z,4.28
2024-01-10T11:18:24.098Z,2.63
2024-01-10T11:21:40.136Z,1.58
2024-01-10T11:24:45.235Z,8.40
2024-01-10T11:28:03.333Z,4.95
2024-01-10T11:31:09.873Z,5.47
2024-01-10T11:34:14.789Z,4.70
2024-01-10T11:37:18.989Z,8.25
2024-01-10T11:40:49.993Z,7.63
2024-01-10T11:44:32.373Z,10.25
2024-01-10T11:47:36.799Z,8.32
2024-01-10T11:50:40.976Z,8.38
2024-01-10T11:53:47.880Z,5.00
2024-01-10T11:56:51.863Z,15.80
2024-01-10T12:00:01.372Z,12.13
2024-01-10T12:03:06.017Z,6.00
2024-01-10T12:06:10.745Z,4.78
2024-01-10T12:09:15.547Z,8.00
2024-01-10T12:12:19.980Z,5.18
2024-01-10T12:15:25.535Z,6.07
2024-01-10T12:18:30.134Z,4.13
2024-01-10T12:21:34.218Z,3.28
2024-01-10T12:24:47.783Z,3.05
2024-01-10T12:27:51.963Z,7.95
2024-01-10T12:30:57.582Z,9.45
2024-01-10T12:34:04.509Z,10.82
2024-01-10T12:37:09.969Z,4.90
2024-01-10T12:40:15.219Z,6.82
2024-01-10T12:43:19.185Z,9.30
2024-01-10T12:46:26.915Z,9.25
2024-01-10T12:52:35.805Z,9.23
2024-01-10T12:55:39.957Z,12.30
2024-01-10T12:58:44.390Z,15.10
2024-01-10T13:01:49.918Z,9.05
2024-01-10T13:04:54.466Z,13.70
2024-01-10T13:08:00.627Z,9.85
2024-01-10T13:11:09.368Z,10.63
2024-01-10T13:14:13.520Z,13.95
2024-01-10T13:17:18.890Z,10.88
2024-01-10T13:20:22.819Z,11.80
2024-01-10T13:23:26.756Z,10.70
2024-01-10T13:26:30.816Z,13.88
2024-01-10T13:29:36.017Z,11.23
2024-01-10T13:32:42.447Z,10.13
2024-01-10T13:35:50.888Z,13.25
2024-01-10T13:38:55.547Z,12.52
2024-01-10T13:41:59.952Z,13.02
2024-01-10T13:45:04.161Z,13.55
2024-01-10T13:48:11.661Z,17.50
2024-01-10T13:51:16.815Z,14.35
2024-01-10T13:54:21.270Z,16.27
2024-01-10T13:57:26.236Z,15.82
2024-01-10T14:00:31.615Z,14.27
2024-01-10T14:03:37.795Z,14.43
2024-01-10T14:06:43.545Z,17.15
2024-01-10T14:09:48.492Z,15.77
2024-01-10T14:12:53.126Z,13.25
2024-01-10T14:15:57.046Z,17.02
2024-01-10T14:19:03.191Z,15.63
2024-01-10T14:22:14.092Z,16.40
2024-01-10T14:25:25.734Z,17.42
2024-01-10T14:28:29.658Z,13.27
2024-01-10T14:31:50.286Z,14.27
2024-01-10T14:35:08.684Z,10.57
2024-01-10T14:38:15.852Z,14.20
2024-01-10T14:41:31.019Z,14.30
2024-01-10T14:44:36.261Z,14.63
2024-01-10T14:47:43.506Z,18.33
2024-01-10T14:50:49.107Z,14.60
2024-01-10T14:53:58.803Z,12.35
2024-01-10T14:57:02.712Z,13.85
2024-01-10T15:00:13.722Z,22.15
2024-01-10T15:03:26.326Z,23.58
2024-01-10T15:06:38.163Z,21.50
2024-01-10T15:09:42.151Z,20.70
2024-01-10T15:12:46.169Z,29.38
2024-01-10T15:15:50.289Z,23.38
2024-01-10T15:18:54.217Z,22.98
2024-01-10T15:22:05.154Z,21.55
2024-01-10T15:25:15.235Z,22.52
2024-01-10T15:28:19.287Z,18.92
2024-01-10T15:31:24.845Z,16.20
2024-01-10T15:34:29.874Z,14.45
2024-01-10T15:37:40.394Z,15.07
2024-01-10T15:40:44.929Z,16.35
2024-01-10T15:43:49.365Z,22.05
2024-01-10T15:47:09.271Z,25.17
2024-01-10T15:50:13.686Z,20.83
2024-01-10T15:53:23.693Z,16.33
2024-01-10T15:56:35.346Z,20.05
2024-01-10T15:59:43.167Z,15.77
2024-01-10T16:02:47.145Z,16.63
2024-01-10T16:05:57.728Z,18.60
2024-01-10T16:09:30.286Z,15.05
2024-01-10T16:12:46.859Z,22.27
2024-01-10T16:16:16.200Z,17.30
2024-01-10T16:19:37.714Z,22.50
2024-01-10T16:22:47.952Z,22.98
2024-01-10T16:25:56.655Z,23.83
2024-01-10T16:29:06.489Z,19.10
2024-01-10T16:32:16.819Z,23.13
2024-01-10T16:35:23.859Z,18.23
2024-01-10T16:38:30.534Z,23.88
2024-01-10T16:41:36.083Z,25.40
2024-01-10T16:44:42.989Z,21.55
2024-01-10T16:47:52.308Z,20.02
2024-01-10T16:51:00.099Z,23.35
2024-01-10T16:57:12.238Z,24.88
2024-01-10T17:00:19.152Z,25.35
2024-01-10T17:03:23.849Z,25.60
2024-01-10T17:06:31.194Z,25.08
2024-01-10T17:09:38.902Z,28.20
2024-01-10T17:15:51.110Z,23.63
2024-01-10T17:18:59.996Z,20.27
2024-01-10T17:22:04.244Z,20.23
2024-01-10T17:25:09.789Z,17.73
2024-01-10T17:28:16.396Z,27.38
2024-01-10T17:31:20.864Z,20.88
2024-01-10T17:34:25.180Z,21.10
2024-01-10T17:37:31.996Z,24.73
2024-01-10T17:40:36.311Z,24.98
2024-01-10T17:43:42.164Z,25.75
2024-01-10T17:46:46.357Z,25.85
2024-01-10T17:49:50.946Z,21.83
2024-01-10T17:52:55.653Z,22.55
2024-01-10T17:55:59.757Z,18.25
2024-01-10T17:59:05.425Z,18.35
2024-01-10T18:02:09.400Z,16.13
2024-01-10T18:05:13.842Z,22.70
2024-01-10T18:08:18.910Z,19.60
2024-01-10T18:11:23.044Z,19.50
2024-01-10T18:14:29.399Z,17.88
2024-01-10T18:17:33.473Z,18.27
2024-01-10T18:20:37.630Z,16.00
2024-01-10T18:23:45.723Z,16.52
2024-01-10T18:26:49.806Z,16.98
2024-01-10T18:29:55.714Z,13.13
2024-01-10T18:33:04.865Z,16.38
2024-01-10T18:36:10.320Z,17.33
2024-01-10T18:39:15.313Z,20.67
2024-01-10T18:42:20.817Z,17.52
2024-01-10T18:45:26.465Z,15.82
2024-01-10T18:48:31.722Z,18.25
2024-01-10T18:51:36.390Z,21.63
2024-01-10T18:54:40.677Z,18.30
2024-01-10T18:57:45.182Z,16.48
2024-01-10T19:00:50.834Z,14.13
2024-01-10T19:03:54.994Z,16.17
2024-01-10T19:06:59.440Z,18.30
2024-01-10T19:10:03.816Z,20.63
2024-01-10T19:13:08.530Z,14.63
2024-01-10T19:16:14.062Z,14.50
2024-01-10T19:19:20.186Z,18.73
2024-01-10T19:22:24.727Z,20.35
2024-01-10T19:25:28.907Z,17.50
2024-01-10T19:28:33.635Z,17.15
2024-01-10T19:31:40.298Z,16.80
2024-01-10T19:34:48.676Z,15.52
2024-01-10T19:37:57.484Z,13.43
2024-01-10T19:41:07.852Z,16.25
2024-01-10T19:44:14.441Z,13.98
2024-01-10T19:47:26.589Z,16.08
2024-01-10T19:50:32.965Z,15.20
2024-01-10T19:53:37.741Z,14.25
2024-01-10T19:56:44.776Z,18.17
2024-01-10T19:59:57.002Z,15.15
2024-01-10T20:03:02.499Z,16.98
2024-01-10T20:06:09.326Z,14.27
2024-01-10T20:09:16.465Z,19.02
2024-01-10T20:12:21.799Z,15.57
2024-01-10T20:15:25.978Z,15.30
2024-01-10T20:18:34.783Z,17.20
2024-01-10T20:21:39.634Z,17.30
2024-01-10T20:24:43.683Z,19.05
2024-01-10T20:27:48.006Z,17.38
2024-01-10T20:30:56.579Z,18.85
2024-01-10T20:34:02.485Z,19.25
2024-01-10T20:37:09.802Z,14.25
2024-01-10T20:40:14.637Z,17.23
2024-01-10T20:43:18.745Z,16.10
2024-01-10T20:46:25.945Z,14.18
2024-01-10T20:49:31.865Z,17.20
2024-01-10T20:52:35.957Z,17.33
2024-01-10T20:55:40.279Z,13.60
2024-01-10T20:58:44.456Z,12.52
2024-01-10T21:01:49.008Z,16.52
2024-01-10T21:04:54.948Z,16.63
2024-01-10T21:08:04.544Z,15.73
2024-01-10T21:11:13.179Z,13.55
2024-01-10T21:14:21.233Z,14.82
2024-01-10T21:17:30.689Z,17.40
2024-01-10T21:20:37.048Z,15.10
2024-01-10T21:23:43.851Z,13.10
2024-01-10T21:26:50.448Z,12.70
2024-01-10T21:30:03.108Z,13.10
2024-01-10T21:33:07.249Z,13.00
2024-01-10T21:36:13.005Z,12.02
2024-01-10T21:39:17.398Z,10.52
2024-01-10T21:42:22.558Z,16.30
2024-01-10T21:45:28.726Z,14.20
2024-01-10T21:48:32.689Z,10.43
2024-01-10T21:51:40.489Z,13.85
2024-01-10T21:54:44.354Z,13.68
2024-01-10T21:57:48.256Z,8.43
2024-01-10T22:00:52.385Z,12.32
2024-01-10T22:03:57.943Z,13.65
2024-01-10T22:07:05.831Z,12.40
2024-01-10T22:10:10.244Z,12.18
2024-01-10T22:13:17.138Z,13.52
2024-01-10T22:16:21.171Z,12.52
2024-01-10T22:19:27.304Z,13.05
2024-01-10T22:22:32.932Z,11.40
2024-01-10T22:25:37.411Z,13.68
2024-01-10T22:28:44.117Z,10.70
2024-01-10T22:31:48.228Z,11.70
2024-01-10T22:34:59.954Z,12.70
2024-01-10T22:38:06.035Z,9.95
2024-01-10T22:41:10.079Z,14.18
2024-01-10T22:44:17.769Z,12.82
2024-01-10T22:47:25.167Z,12.07
2024-01-10T22:50:29.795Z,10.85
2024-01-10T22:53:40.144Z,9.27
2024-01-10T22:56:53.243Z,10.88
2024-01-10T22:59:57.316Z,11.02
2024-01-10T23:03:01.928Z,12.57
2024-01-10T23:06:09.507Z,10.27
2024-01-10T23:09:16.794Z,12.88
2024-01-10T23:12:20.716Z,6.70
2024-01-10T23:15:25.886Z,10.43
2024-01-10T23:18:34.870Z,9.48
2024-01-10T23:21:39.430Z,9.30
2024-01-10T23:24:46.653Z,10.43
2024-01-10T23:27:50.662Z,9.80
2024-01-10T23:30:58.410Z,11.27
2024-01-10T23:34:05.657Z,9.43
2024-01-10T23:37:14.024Z,9.63
2024-01-10T23:40:21.197Z,8.82
2024-01-10T23:43:29.958Z,9.18
2024-01-10T23:46:36.674Z,11.13
2024-01-10T23:49:40.644Z,8.32
2024-01-10T23:52:44.676Z,8.63
2024-01-10T23:55:52.178Z,14.10
2024-01-10T23:59:05.112Z,9.45
